Time;durP1;ratioP1;P1;durP2;ratioP2;P2;SDS_P1;SDS_P2;PMS_P1;PMS_P2;Temp;Humidity;BMP_temperature;BMP_pressure;BME280_temperature;BME280_humidity;BME280_pressure;Samples;Min_cycle;Max_cycle;Signal;HPM_P1;HPM_P2
2023/06/05 00:00:10;;;;;;;3.42;2.67;;;;;;;;;;5070018;28;20040;-68
2023/06/05 00:02:38;;;;;;;3.85;2.83;;;;;;;;;;5070402;28;20052;-67
2023/06/05 00:05:08;;;;;;;4.45;2.85;;;;;;;;;;5070031;28;20049;-68
2023/06/05 00:07:35;;;;;;;4.38;3.20;;;;;;;;;;5070467;28;20520;-68
2023/06/05 00:10:01;;;;;;;4.85;4.30;;;;;;;;;;5070132;28;20044;-68
2023/06/05 00:12:28;;;;;;;3.55;2.60;;;;;;;;;;5070318;28;20049;-68
2023/06/05 00:14:54;;;;;;;4.95;3.28;;;;;;;;;;5070071;28;20247;-68
2023/06/05 00:17:21;;;;;;;4.22;2.90;;;;;;;;;;5072052;28;20055;-68
2023/06/05 00:19:49;;;;;;;4.55;2.90;;;;;;;;;;5073850;28;20045;-68
2023/06/05 00:22:15;;;;;;;3.67;3.20;;;;;;;;;;5074333;28;20045;-68
2023/06/05 00:24:42;;;;;;;4.30;2.78;;;;;;;;;;5074375;28;20505;-68
2023/06/05 00:27:08;;;;;;;4.07;2.63;;;;;;;;;;5073725;28;20049;-68
2023/06/05 00:29:35;;;;;;;5.15;3.10;;;;;;;;;;5074227;28;20402;-68
2023/06/05 00:32:01;;;;;;;4.22;3.05;;;;;;;;;;5073518;28;20051;-68
2023/06/05 00:34:28;;;;;;;3.75;3.03;;;;;;;;;;5073703;28;20045;-67
2023/06/05 00:36:57;;;;;;;3.97;3.25;;;;;;;;;;5073319;28;20045;-68
2023/06/05 00:39:24;;;;;;;4.15;3.08;;;;;;;;;;5073587;28;20048;-67
2023/06/05 00:41:51;;;;;;;4.15;3.25;;;;;;;;;;5073406;28;20482;-68
2023/06/05 00:44:19;;;;;;;5.50;2.90;;;;;;;;;;5073962;28;20053;-68
2023/06/05 00:46:46;;;;;;;4.20;3.25;;;;;;;;;;5073441;28;20055;-68
2023/06/05 00:49:13;;;;;;;4.60;3.10;;;;;;;;;;5073494;28;20044;-68
2023/06/05 00:51:42;;;;;;;3.85;3.10;;;;;;;;;;5073415;28;20318;-68
2023/06/05 00:54:11;;;;;;;5.00;3.40;;;;;;;;;;5073853;28;20044;-68
2023/06/05 00:56:39;;;;;;;3.55;2.83;;;;;;;;;;5073069;28;20040;-68
2023/06/05 00:59:06;;;;;;;4.07;3.38;;;;;;;;;;5073290;28;20045;-68
2023/06/05 01:01:34;;;;;;;4.28;3.25;;;;;;;;;;5073528;28;20122;-68
2023/06/05 01:04:01;;;;;;;5.03;2.70;;;;;;;;;;5073322;28;20490;-68
2023/06/05 01:06:30;;;;;;;5.32;3.40;;;;;;;;;;5073534;28;20481;-67
2023/06/05 01:08:59;;;;;;;6.50;3.08;;;;;;;;;;5073147;28;20074;-68
2023/06/05 01:11:32;;;;;;;6.15;3.83;;;;;;;;;;5073792;28;20048;-68
2023/06/05 01:14:08;;;;;;;4.05;2.90;;;;;;;;;;5073206;28;20501;-68
2023/06/05 01:16:34;;;;;;;3.75;3.00;;;;;;;;;;5073225;28;20377;-67
2023/06/05 01:19:02;;;;;;;4.97;3.13;;;;;;;;;;5072845;28;20052;-67
2023/06/05 01:21:30;;;;;;;4.43;3.22;;;;;;;;;;5073215;28;20414;-68
2023/06/05 01:23:58;;;;;;;4.90;3.10;;;;;;;;;;5072863;28;20056;-68
2023/06/05 01:26:31;;;;;;;3.63;2.92;;;;;;;;;;5072749;28;20085;-68
2023/06/05 01:29:00;;;;;;;7.20;3.35;;;;;;;;;;5071232;28;20080;-68
2023/06/05 01:31:29;;;;;;;4.65;3.28;;;;;;;;;;5073092;28;20095;-68
2023/06/05 01:34:03;;;;;;;6.32;3.03;;;;;;;;;;5072581;28;20079;-67
2023/06/05 01:36:31;;;;;;;4.07;3.20;;;;;;;;;;5073346;28;20045;-67
2023/06/05 01:39:01;;;;;;;3.78;2.90;;;;;;;;;;5072671;28;20383;-68
2023/06/05 01:41:28;;;;;;;5.32;2.90;;;;;;;;;;5072554;28;20044;-68
2023/06/05 01:43:56;;;;;;;3.63;3.10;;;;;;;;;;5072198;28;20143;-68
2023/06/05 01:46:24;;;;;;;4.32;2.80;;;;;;;;;;5072766;28;20044;-68
2023/06/05 01:48:52;;;;;;;3.70;3.03;;;;;;;;;;5072779;28;20071;-68
2023/06/05 01:51:19;;;;;;;3.60;2.97;;;;;;;;;;5072435;28;20052;-67
2023/06/05 01:53:48;;;;;;;5.53;3.08;;;;;;;;;;5072393;28;20092;-68
2023/06/05 01:56:19;;;;;;;6.70;3.25;;;;;;;;;;5071922;28;20052;-68
2023/06/05 01:58:46;;;;;;;3.63;3.20;;;;;;;;;;5072678;28;20703;-67
2023/06/05 02:01:15;;;;;;;4.18;2.90;;;;;;;;;;5072126;28;20049;-68
2023/06/05 02:03:47;;;;;;;5.15;3.30;;;;;;;;;;5072172;28;20136;-68
2023/06/05 02:06:14;;;;;;;4.18;3.03;;;;;;;;;;5072097;28;20048;-68
2023/06/05 02:08:40;;;;;;;4.88;3.20;;;;;;;;;;5072267;28;20474;-68
2023/06/05 02:11:09;;;;;;;4.65;3.00;;;;;;;;;;5072227;28;20055;-68
2023/06/05 02:13:38;;;;;;;3.42;2.90;;;;;;;;;;5072306;28;20055;-68
2023/06/05 02:16:05;;;;;;;4.88;3.25;;;;;;;;;;5071792;28;20052;-68
2023/06/05 02:18:32;;;;;;;5.20;3.33;;;;;;;;;;5072534;28;20384;-67
2023/06/05 02:20:58;;;;;;;4.43;3.05;;;;;;;;;;5071814;28;20063;-68
2023/06/05 02:23:26;;;;;;;6.47;3.17;;;;;;;;;;5071988;28;20045;-68
2023/06/05 02:25:52;;;;;;;3.38;3.00;;;;;;;;;;5071804;28;20135;-68
2023/06/05 02:28:20;;;;;;;3.60;2.72;;;;;;;;;;5071853;28;20045;-68
2023/06/05 02:30:48;;;;;;;5.43;3.40;;;;;;;;;;5071982;28;20494;-67
2023/06/05 02:33:15;;;;;;;3.38;2.90;;;;;;;;;;5071091;28;20055;-68
2023/06/05 02:35:42;;;;;;;4.32;3.10;;;;;;;;;;5071872;28;20050;-67
2023/06/05 02:38:09;;;;;;;4.25;3.35;;;;;;;;;;5071253;28;20048;-67
2023/06/05 02:40:36;;;;;;;3.10;2.72;;;;;;;;;;5071279;28;20560;-68
2023/06/05 02:43:05;;;;;;;5.38;3.05;;;;;;;;;;5071106;28;20323;-68
2023/06/05 02:45:33;;;;;;;3.47;3.10;;;;;;;;;;5071627;28;20044;-68
2023/06/05 02:48:01;;;;;;;3.53;3.00;;;;;;;;;;5071120;28;20133;-67
2023/06/05 02:50:28;;;;;;;5.10;3.30;;;;;;;;;;5071148;28;20055;-68
2023/06/05 02:52:54;;;;;;;3.42;2.97;;;;;;;;;;5071058;28;20044;-68
2023/06/05 02:55:21;;;;;;;4.35;3.10;;;;;;;;;;5071312;28;20417;-67
2023/06/05 02:57:48;;;;;;;5.57;3.03;;;;;;;;;;5070909;28;20048;-68
2023/06/05 03:00:16;;;;;;;4.45;3.35;;;;;;;;;;5071415;28;20497;-68
2023/06/05 03:02:48;;;;;;;4.28;3.40;;;;;;;;;;5070974;28;20051;-67
2023/06/05 03:05:17;;;;;;;5.13;3.55;;;;;;;;;;5071351;28;20087;-68
2023/06/05 03:07:43;;;;;;;4.60;3.25;;;;;;;;;;5071183;28;20044;-67
2023/06/05 03:10:10;;;;;;;3.58;2.95;;;;;;;;;;5070662;28;20406;-68
2023/06/05 03:12:37;;;;;;;5.60;3.33;;;;;;;;;;5071272;28;20075;-67
2023/06/05 03:15:04;;;;;;;5.50;3.80;;;;;;;;;;5070457;28;20048;-68
2023/06/05 03:17:31;;;;;;;4.82;3.38;;;;;;;;;;5096164;22;20050;-69
2023/06/05 03:19:58;;;;;;;4.00;3.20;;;;;;;;;;5091336;28;20420;-67
2023/06/05 03:22:26;;;;;;;3.60;3.10;;;;;;;;;;5091256;28;20412;-67
2023/06/05 03:24:52;;;;;;;3.80;2.92;;;;;;;;;;5091570;28;20052;-69
2023/06/05 03:27:19;;;;;;;4.30;3.30;;;;;;;;;;5091661;28;20090;-70
2023/06/05 03:29:45;;;;;;;3.55;3.15;;;;;;;;;;5090959;28;20401;-69
2023/06/05 03:32:12;;;;;;;3.50;3.00;;;;;;;;;;5091160;28;20177;-66
2023/06/05 03:34:42;;;;;;;3.67;3.25;;;;;;;;;;5090656;28;20040;-66
2023/06/05 03:37:09;;;;;;;4.65;3.30;;;;;;;;;;5091120;28;20550;-69
2023/06/05 03:39:37;;;;;;;4.18;3.28;;;;;;;;;;5090509;28;20058;-68
2023/06/05 03:42:06;;;;;;;4.90;3.20;;;;;;;;;;5091045;28;20044;-69
2023/06/05 03:44:33;;;;;;;4.20;3.25;;;;;;;;;;5090697;28;20044;-69
2023/06/05 03:46:59;;;;;;;5.80;3.28;;;;;;;;;;5090031;28;20055;-70
2023/06/05 03:49:28;;;;;;;4.30;3.00;;;;;;;;;;5091240;28;20040;-70
2023/06/05 03:51:58;;;;;;;3.75;3.25;;;;;;;;;;5089930;28;20048;-70
2023/06/05 03:54:25;;;;;;;4.65;3.20;;;;;;;;;;5091260;28;20139;-69
2023/06/05 03:56:55;;;;;;;4.22;3.20;;;;;;;;;;5090233;28;20048;-68
2023/06/05 03:59:22;;;;;;;6.22;3.10;;;;;;;;;;5090978;28;20143;-69
2023/06/05 04:01:49;;;;;;;7.22;3.00;;;;;;;;;;5090607;28;20170;-69
2023/06/05 04:04:16;;;;;;;4.50;3.20;;;;;;;;;;5091168;28;20390;-69
2023/06/05 04:06:43;;;;;;;3.58;3.10;;;;;;;;;;5090444;28;20050;-69
2023/06/05 04:09:12;;;;;;;5.38;3.10;;;;;;;;;;5091089;28;20056;-69
2023/06/05 04:11:39;;;;;;;4.43;3.45;;;;;;;;;;5090259;28;20140;-69
2023/06/05 04:14:07;;;;;;;5.85;3.70;;;;;;;;;;5090961;28;20055;-68
2023/06/05 04:16:34;;;;;;;4.43;3.00;;;;;;;;;;5090202;28;20413;-68
2023/06/05 04:19:01;;;;;;;5.22;3.13;;;;;;;;;;5090894;28;20098;-69
2023/06/05 04:21:28;;;;;;;3.95;3.20;;;;;;;;;;5090759;28;20126;-67
2023/06/05 04:23:54;;;;;;;6.57;3.60;;;;;;;;;;5090365;28;20055;-69
2023/06/05 04:26:23;;;;;;;4.65;3.10;;;;;;;;;;5091042;28;20173;-69
2023/06/05 04:28:51;;;;;;;5.93;3.90;;;;;;;;;;5090745;28;20044;-70
2023/06/05 04:31:19;;;;;;;3.88;2.97;;;;;;;;;;5091181;28;20131;-70
2023/06/05 04:33:45;;;;;;;6.00;3.40;;;;;;;;;;5090558;28;20044;-69
2023/06/05 04:36:12;;;;;;;4.85;3.00;;;;;;;;;;5090598;28;20048;-70
2023/06/05 04:38:39;;;;;;;4.57;3.45;;;;;;;;;;5090468;28;20044;-69
2023/06/05 04:41:06;;;;;;;5.32;3.53;;;;;;;;;;5090431;28;20460;-67
2023/06/05 04:43:33;;;;;;;4.68;3.00;;;;;;;;;;5090391;28;20072;-69
2023/06/05 04:46:00;;;;;;;4.50;3.92;;;;;;;;;;5090486;28;20048;-69
2023/06/05 04:48:28;;;;;;;4.68;3.40;;;;;;;;;;5090368;28;20052;-68
2023/06/05 04:50:55;;;;;;;4.90;3.63;;;;;;;;;;5090924;28;20048;-69
2023/06/05 04:53:22;;;;;;;4.18;3.30;;;;;;;;;;5090004;28;20504;-69
2023/06/05 04:55:49;;;;;;;5.43;3.38;;;;;;;;;;5090547;28;20408;-68
2023/06/05 04:58:16;;;;;;;5.03;3.38;;;;;;;;;;5090681;28;20040;-70
2023/06/05 05:00:44;;;;;;;7.57;3.47;;;;;;;;;;5090418;28;20485;-69
2023/06/05 05:03:11;;;;;;;5.53;3.47;;;;;;;;;;5092363;28;20496;-69
2023/06/05 05:05:39;;;;;;;4.93;3.42;;;;;;;;;;5094260;28;20048;-69
2023/06/05 05:08:06;;;;;;;5.88;3.28;;;;;;;;;;5093932;28;20048;-70
2023/06/05 05:10:33;;;;;;;6.30;3.38;;;;;;;;;;5093864;28;20044;-69
2023/06/05 05:13:01;;;;;;;9.05;3.55;;;;;;;;;;5094171;28;20137;-67
2023/06/05 05:15:28;;;;;;;5.95;3.60;;;;;;;;;;5093781;28;20075;-67
2023/06/05 05:17:55;;;;;;;4.68;3.10;;;;;;;;;;5093582;28;20044;-69
2023/06/05 05:20:22;;;;;;;4.00;3.17;;;;;;;;;;5093194;28;20055;-68
2023/06/05 05:22:50;;;;;;;6.85;3.40;;;;;;;;;;5093989;28;20453;-69
2023/06/05 05:25:17;;;;;;;5.25;3.13;;;;;;;;;;5093619;28;20072;-69
2023/06/05 05:27:43;;;;;;;4.30;3.42;;;;;;;;;;5093607;28;20056;-68
2023/06/05 05:30:11;;;;;;;5.25;3.13;;;;;;;;;;5093658;28;20067;-68
2023/06/05 05:32:37;;;;;;;5.97;3.20;;;;;;;;;;5093717;28;20393;-66
2023/06/05 05:35:04;;;;;;;5.18;3.35;;;;;;;;;;5093208;28;20063;-67
2023/06/05 05:37:31;;;;;;;4.38;3.25;;;;;;;;;;5093458;28;20380;-69
2023/06/05 05:39:59;;;;;;;4.30;3.13;;;;;;;;;;5094104;28;20055;-70
2023/06/05 05:42:25;;;;;;;4.35;3.20;;;;;;;;;;5093513;28;20051;-69
2023/06/05 05:44:52;;;;;;;5.95;3.55;;;;;;;;;;5093443;28;20290;-70
2023/06/05 05:47:18;;;;;;;7.65;3.30;;;;;;;;;;5093185;28;20060;-67
2023/06/05 05:49:45;;;;;;;5.30;3.53;;;;;;;;;;5093459;28;20396;-69
2023/06/05 05:52:11;;;;;;;7.60;3.38;;;;;;;;;;5092928;28;20135;-69
2023/06/05 05:54:38;;;;;;;7.63;3.05;;;;;;;;;;5093299;28;20498;-70
2023/06/05 05:57:07;;;;;;;7.80;3.00;;;;;;;;;;5092900;28;20070;-69
2023/06/05 05:59:33;;;;;;;7.10;3.67;;;;;;;;;;5093361;28;20048;-66
2023/06/05 06:02:00;;;;;;;6.30;2.60;;;;;;;;;;5092718;28;20052;-69
2023/06/05 06:04:27;;;;;;;4.35;2.70;;;;;;;;;;5092681;28;20056;-68
2023/06/05 06:06:56;;;;;;;9.05;3.10;;;;;;;;;;5092540;28;20054;-69
2023/06/05 06:09:22;;;;;;;5.88;3.08;;;;;;;;;;5092761;28;20044;-69
2023/06/05 06:11:49;;;;;;;4.88;2.25;;;;;;;;;;5092840;28;20511;-67
2023/06/05 06:14:17;;;;;;;6.22;2.15;;;;;;;;;;5092055;28;20044;-70
2023/06/05 06:16:43;;;;;;;4.45;2.50;;;;;;;;;;5092652;28;20044;-66
2023/06/05 06:19:13;;;;;;;7.30;2.40;;;;;;;;;;5092519;28;20048;-69
2023/06/05 06:21:40;;;;;;;5.03;2.17;;;;;;;;;;5092852;28;20040;-68
2023/06/05 06:24:07;;;;;;;4.72;2.00;;;;;;;;;;5092088;28;20059;-69
2023/06/05 06:26:33;;;;;;;4.72;2.00;;;;;;;;;;5092072;28;20051;-67
2023/06/05 06:29:00;;;;;;;4.57;2.22;;;;;;;;;;5092399;28;20045;-69
2023/06/05 06:31:28;;;;;;;4.40;2.13;;;;;;;;;;5092814;28;20050;-67
2023/06/05 06:33:54;;;;;;;5.82;2.30;;;;;;;;;;5091821;28;20089;-67
2023/06/05 06:36:22;;;;;;;4.20;2.45;;;;;;;;;;5092241;28;20055;-67
2023/06/05 06:38:48;;;;;;;7.03;2.03;;;;;;;;;;5092364;28;20040;-69
2023/06/05 06:41:16;;;;;;;3.85;2.20;;;;;;;;;;5092623;28;20040;-70
2023/06/05 06:43:42;;;;;;;7.53;2.65;;;;;;;;;;5091742;28;20075;-67
2023/06/05 06:46:09;;;;;;;3.20;2.30;;;;;;;;;;5092740;28;20478;-68
2023/06/05 06:48:37;;;;;;;4.68;2.20;;;;;;;;;;5092191;28;20485;-70
2023/06/05 06:51:03;;;;;;;5.95;2.00;;;;;;;;;;5091591;28;20044;-70
2023/06/05 06:53:30;;;;;;;3.83;1.80;;;;;;;;;;5092009;28;20473;-69
2023/06/05 06:55:57;;;;;;;5.43;2.17;;;;;;;;;;5091021;28;20097;-69
2023/06/05 06:58:24;;;;;;;8.38;2.65;;;;;;;;;;5091902;28;20051;-67
2023/06/05 07:00:50;;;;;;;4.15;2.10;;;;;;;;;;5091546;28;20048;-67
2023/06/05 07:03:17;;;;;;;5.75;2.10;;;;;;;;;;5091530;28;20082;-68
2023/06/05 07:05:45;;;;;;;8.65;2.25;;;;;;;;;;5091065;28;20048;-68
2023/06/05 07:08:11;;;;;;;3.75;1.70;;;;;;;;;;5091897;28;20048;-68
2023/06/05 07:10:40;;;;;;;6.95;2.20;;;;;;;;;;5091624;28;20051;-68
2023/06/05 07:13:06;;;;;;;5.75;2.17;;;;;;;;;;5091224;28;20059;-69
2023/06/05 07:15:33;;;;;;;5.25;2.25;;;;;;;;;;5091485;28;20051;-66
2023/06/05 07:18:00;;;;;;;5.28;2.28;;;;;;;;;;5090341;28;20059;-68
2023/06/05 07:20:26;;;;;;;3.65;2.13;;;;;;;;;;5091055;28;20514;-68
2023/06/05 07:22:54;;;;;;;5.80;2.15;;;;;;;;;;5091384;28;20256;-68
2023/06/05 07:25:24;;;;;;;5.30;2.13;;;;;;;;;;5090924;28;20059;-68
2023/06/05 07:27:51;;;;;;;6.28;2.20;;;;;;;;;;5090256;28;20055;-68
2023/06/05 07:30:17;;;;;;;3.80;1.80;;;;;;;;;;5091307;28;20417;-66
2023/06/05 07:32:45;;;;;;;3.97;1.73;;;;;;;;;;5091180;28;20070;-67
2023/06/05 07:35:12;;;;;;;2.22;1.50;;;;;;;;;;5090472;28;20097;-68
2023/06/05 07:37:39;;;;;;;2.50;1.75;;;;;;;;;;5091035;28;20088;-68
2023/06/05 07:40:09;;;;;;;3.47;1.67;;;;;;;;;;5090694;28;20048;-67
2023/06/05 07:42:36;;;;;;;3.17;1.83;;;;;;;;;;5091291;28;20409;-66
2023/06/05 07:45:02;;;;;;;2.80;1.50;;;;;;;;;;5090526;28;20078;-68
2023/06/05 07:47:29;;;;;;;4.25;1.65;;;;;;;;;;5090751;28;20050;-68
2023/06/05 07:49:59;;;;;;;3.65;1.38;;;;;;;;;;5090351;28;20085;-68
2023/06/05 07:52:26;;;;;;;1.88;1.52;;;;;;;;;;5091312;28;20048;-65
2023/06/05 07:54:53;;;;;;;4.88;1.60;;;;;;;;;;5090938;28;20047;-67
2023/06/05 07:57:21;;;;;;;5.78;1.80;;;;;;;;;;5090897;28;20044;-68
2023/06/05 07:59:48;;;;;;;2.17;1.30;;;;;;;;;;5090826;28;20073;-69
2023/06/05 08:02:15;;;;;;;4.65;1.40;;;;;;;;;;5090637;28;20080;-68
2023/06/05 08:04:42;;;;;;;3.25;1.70;;;;;;;;;;5090938;28;20478;-68
2023/06/05 08:07:09;;;;;;;4.00;1.40;;;;;;;;;;5090038;28;20409;-68
2023/06/05 08:09:37;;;;;;;7.18;1.98;;;;;;;;;;5091135;28;20410;-69
2023/06/05 08:12:03;;;;;;;3.33;1.67;;;;;;;;;;5089798;28;20060;-69
2023/06/05 08:14:31;;;;;;;3.63;1.50;;;;;;;;;;5090554;28;20106;-68
2023/06/05 08:16:58;;;;;;;4.22;1.15;;;;;;;;;;5089850;28;20048;-68
2023/06/05 08:19:25;;;;;;;4.25;1.80;;;;;;;;;;5090943;28;20055;-67
2023/06/05 08:21:53;;;;;;;4.03;1.60;;;;;;;;;;5091172;28;20406;-67
2023/06/05 08:24:20;;;;;;;3.90;1.38;;;;;;;;;;5090540;28;20049;-68
2023/06/05 08:26:47;;;;;;;2.88;1.35;;;;;;;;;;5090594;28;20462;-66
2023/06/05 08:29:14;;;;;;;5.80;1.90;;;;;;;;;;5089956;28;20040;-68
2023/06/05 08:31:41;;;;;;;7.93;1.88;;;;;;;;;;5090393;28;20044;-67
2023/06/05 08:34:08;;;;;;;2.92;1.63;;;;;;;;;;5090274;28;20051;-67
2023/06/05 08:36:35;;;;;;;5.57;1.50;;;;;;;;;;5090511;28;20382;-68
2023/06/05 08:39:02;;;;;;;5.47;1.63;;;;;;;;;;5093417;28;20044;-67
2023/06/05 08:41:31;;;;;;;3.33;1.30;;;;;;;;;;5094481;28;20044;-67
2023/06/05 08:43:58;;;;;;;2.13;1.50;;;;;;;;;;5094051;28;20048;-67
2023/06/05 08:46:29;;;;;;;1.85;1.55;;;;;;;;;;5093888;28;20048;-68
2023/06/05 08:48:57;;;;;;;4.57;1.50;;;;;;;;;;5094521;28;20055;-68
2023/06/05 08:51:24;;;;;;;3.45;1.50;;;;;;;;;;5093366;28;20082;-66
2023/06/05 08:53:55;;;;;;;4.68;1.35;;;;;;;;;;5094392;28;20505;-68
2023/06/05 08:56:22;;;;;;;2.85;1.23;;;;;;;;;;5093779;28;20051;-67
2023/06/05 08:58:50;;;;;;;2.22;1.40;;;;;;;;;;5094601;28;20409;-68
2023/06/05 09:01:17;;;;;;;3.58;1.42;;;;;;;;;;5093491;28;20409;-67
2023/06/05 09:03:44;;;;;;;4.07;1.38;;;;;;;;;;5094317;28;20052;-68
2023/06/05 09:06:12;;;;;;;2.30;1.40;;;;;;;;;;5093889;28;20053;-67
2023/06/05 09:08:39;;;;;;;4.40;1.55;;;;;;;;;;5093886;28;20477;-68
2023/06/05 09:11:25;;;;;;;11.05;1.65;;;;;;;;;;5093428;28;20436;-67
2023/06/05 09:13:52;;;;;;;4.28;1.77;;;;;;;;;;5094079;28;20500;-68
2023/06/05 09:16:23;;;;;;;2.28;1.40;;;;;;;;;;5105033;22;20040;-70
2023/06/05 09:18:54;;;;;;;4.32;1.70;;;;;;;;;;5053926;28;20053;-71
2023/06/05 09:21:28;;;;;;;4.55;1.33;;;;;;;;;;5053240;28;20052;-69
2023/06/05 09:24:11;;;;;;;3.30;1.35;;;;;;;;;;5053212;28;20498;-70
2023/06/05 09:26:47;;;;;;;2.72;1.40;;;;;;;;;;5053035;28;20099;-71
2023/06/05 09:29:14;;;;;;;5.13;1.60;;;;;;;;;;5053101;28;20051;-71
2023/06/05 09:31:42;;;;;;;5.72;1.35;;;;;;;;;;5053668;28;20049;-69
2023/06/05 09:34:09;;;;;;;8.32;1.85;;;;;;;;;;5053061;28;20486;-70
2023/06/05 09:36:45;;;;;;;2.95;1.50;;;;;;;;;;5049900;28;20049;-70
2023/06/05 09:39:15;;;;;;;4.15;1.45;;;;;;;;;;5053025;28;20076;-69
2023/06/05 09:41:46;;;;;;;6.13;1.80;;;;;;;;;;5052271;28;20053;-70
2023/06/05 09:44:13;;;;;;;1.70;1.30;;;;;;;;;;5051788;28;20144;-70
2023/06/05 09:46:55;;;;;;;2.63;1.45;;;;;;;;;;5052007;28;20067;-70
2023/06/05 09:49:30;;;;;;;2.35;1.50;;;;;;;;;;5050667;28;20246;-71
2023/06/05 09:51:59;;;;;;;3.42;1.77;;;;;;;;;;5052159;28;20045;-70
2023/06/05 09:54:27;;;;;;;3.67;1.70;;;;;;;;;;5051973;28;20045;-70
2023/06/05 09:56:59;;;;;;;3.65;1.85;;;;;;;;;;5051694;28;20099;-70
2023/06/05 09:59:28;;;;;;;3.83;1.77;;;;;;;;;;5051414;28;20418;-69
2023/06/05 10:01:56;;;;;;;3.20;1.67;;;;;;;;;;5052039;28;20494;-70
2023/06/05 10:04:24;;;;;;;2.88;1.70;;;;;;;;;;5052332;28;20044;-69
2023/06/05 10:06:53;;;;;;;3.00;1.42;;;;;;;;;;5051880;28;20364;-70
2023/06/05 10:09:21;;;;;;;4.25;1.65;;;;;;;;;;5051861;28;20045;-70
2023/06/05 10:11:51;;;;;;;4.22;1.58;;;;;;;;;;5050815;28;20171;-70
2023/06/05 10:14:19;;;;;;;2.13;1.30;;;;;;;;;;5051680;28;20041;-70
2023/06/05 10:16:50;;;;;;;3.80;1.70;;;;;;;;;;5050919;28;20051;-70
2023/06/05 10:19:19;;;;;;;4.32;1.60;;;;;;;;;;5051498;28;20098;-68
2023/06/05 10:21:48;;;;;;;3.47;1.70;;;;;;;;;;5050655;28;20131;-68
2023/06/05 10:24:18;;;;;;;2.20;1.30;;;;;;;;;;5051306;28;20072;-68
2023/06/05 10:27:05;;;;;;;7.93;2.00;;;;;;;;;;5050968;28;20692;-68
2023/06/05 10:29:56;;;;;;;4.43;1.63;;;;;;;;;;5050865;28;20052;-69
2023/06/05 10:32:37;;;;;;;2.22;1.83;;;;;;;;;;5050758;28;20396;-68
2023/06/05 10:35:15;;;;;;;3.57;1.57;;;;;;;;;;5051515;28;20052;-69
2023/06/05 10:37:54;;;;;;;5.65;1.55;;;;;;;;;;5050421;28;20418;-69
2023/06/05 10:40:21;;;;;;;2.38;1.77;;;;;;;;;;5051030;28;20075;-68
2023/06/05 10:42:49;;;;;;;3.13;1.73;;;;;;;;;;5050734;28;20051;-68
2023/06/05 10:45:31;;;;;;;2.33;1.65;;;;;;;;;;5050833;28;20069;-69
2023/06/05 10:47:58;;;;;;;4.88;1.50;;;;;;;;;;5051223;28;20556;-68
2023/06/05 10:50:27;;;;;;;2.13;1.38;;;;;;;;;;5050162;28;20103;-68
2023/06/05 10:52:55;;;;;;;4.03;1.70;;;;;;;;;;5051137;28;20041;-69
2023/06/05 10:55:23;;;;;;;4.28;1.73;;;;;;;;;;5050923;28;20083;-68
2023/06/05 10:58:13;;;;;;;5.38;1.60;;;;;;;;;;5050056;28;20048;-68
2023/06/05 11:01:19;;;;;;;1.95;1.52;;;;;;;;;;5049748;28;20071;-69
2023/06/05 11:03:57;;;;;;;2.33;1.40;;;;;;;;;;5050412;28;20053;-68
2023/06/05 11:06:24;;;;;;;3.67;1.75;;;;;;;;;;5050098;28;20518;-68
2023/06/05 11:09:12;;;;;;;1.90;1.52;;;;;;;;;;5050554;28;20044;-68
2023/06/05 11:11:58;;;;;;;2.40;1.58;;;;;;;;;;5050687;28;20040;-68
2023/06/05 11:14:44;;;;;;;2.55;1.90;;;;;;;;;;5046880;28;20127;-69
2023/06/05 11:17:33;;;;;;;3.95;1.60;;;;;;;;;;5049871;28;20045;-68
2023/06/05 11:20:00;;;;;;;1.85;1.50;;;;;;;;;;5050080;28;20060;-69
2023/06/05 11:22:27;;;;;;;2.53;1.45;;;;;;;;;;5050042;28;20049;-68
2023/06/05 11:25:26;;;;;;;4.57;2.10;;;;;;;;;;5046201;28;20041;-68
2023/06/05 11:27:54;;;;;;;3.58;1.40;;;;;;;;;;5029589;28;20081;-68
2023/06/05 11:30:24;;;;;;;3.67;1.42;;;;;;;;;;5030218;28;20060;-68
2023/06/05 11:32:52;;;;;;;3.35;1.73;;;;;;;;;;5030188;28;20080;-68
2023/06/05 11:35:21;;;;;;;6.72;2.38;;;;;;;;;;5029994;28;20132;-68
2023/06/05 11:37:48;;;;;;;2.85;1.60;;;;;;;;;;5029587;28;20052;-68
2023/06/05 11:40:25;;;;;;;4.35;2.05;;;;;;;;;;5029616;28;20045;-69
2023/06/05 11:42:51;;;;;;;2.88;1.77;;;;;;;;;;5029871;28;20491;-69
2023/06/05 11:45:18;;;;;;;4.00;1.80;;;;;;;;;;5029966;28;20105;-69
2023/06/05 11:47:46;;;;;;;4.90;1.60;;;;;;;;;;5029574;28;20053;-68
2023/06/05 11:50:15;;;;;;;4.40;2.05;;;;;;;;;;5029088;28;20048;-69
2023/06/05 11:52:43;;;;;;;11.48;1.88;;;;;;;;;;5030086;28;20041;-69
2023/06/05 11:55:15;;;;;;;2.60;1.70;;;;;;;;;;5029145;28;20136;-69
2023/06/05 11:57:42;;;;;;;;;;;;;;;;;;5030331;28;20053;-69
2023/06/05 12:00:10;;;;;;;4.32;1.77;;;;;;;;;;5029077;28;19921;-69
2023/06/05 12:02:37;;;;;;;4.32;1.75;;;;;;;;;;5030203;28;20080;-69
2023/06/05 12:05:07;;;;;;;3.58;1.60;;;;;;;;;;5029482;28;20042;-69
2023/06/05 12:07:36;;;;;;;3.78;1.92;;;;;;;;;;5030012;28;20061;-69
2023/06/05 12:10:03;;;;;;;3.72;1.60;;;;;;;;;;5028999;28;20050;-69
2023/06/05 12:12:30;;;;;;;3.58;1.75;;;;;;;;;;5031001;28;20045;-69
2023/06/05 12:14:57;;;;;;;2.72;1.60;;;;;;;;;;5033600;28;20523;-69
2023/06/05 12:17:23;;;;;;;6.93;1.67;;;;;;;;;;5034356;28;20092;-70
2023/06/05 12:19:53;;;;;;;3.63;1.67;;;;;;;;;;5033742;28;20080;-69
2023/06/05 12:22:22;;;;;;;3.03;1.70;;;;;;;;;;5033492;28;20052;-69
2023/06/05 12:24:48;;;;;;;2.42;1.60;;;;;;;;;;5034066;28;20053;-69
2023/06/05 12:27:15;;;;;;;2.70;1.60;;;;;;;;;;5033248;28;20050;-69
2023/06/05 12:29:55;;;;;;;4.70;1.92;;;;;;;;;;5033600;28;20704;-69
2023/06/05 12:32:23;;;;;;;7.30;2.03;;;;;;;;;;5033688;28;20474;-69
2023/06/05 12:34:51;;;;;;;3.42;1.83;;;;;;;;;;5033658;28;20053;-69
2023/06/05 12:37:29;;;;;;;2.20;1.73;;;;;;;;;;5033165;28;20061;-69
2023/06/05 12:39:56;;;;;;;3.92;1.95;;;;;;;;;;5032818;28;20052;-69
2023/06/05 12:42:22;;;;;;;3.40;1.63;;;;;;;;;;5033762;28;20475;-69
2023/06/05 12:44:49;;;;;;;3.30;1.60;;;;;;;;;;5033724;28;20052;-69
2023/06/05 12:47:16;;;;;;;1.80;1.65;;;;;;;;;;5032915;28;20049;-70
2023/06/05 12:49:43;;;;;;;2.13;1.70;;;;;;;;;;5033063;28;20534;-70
2023/06/05 12:52:10;;;;;;;4.57;1.70;;;;;;;;;;5032973;28;20045;-69
2023/06/05 12:54:38;;;;;;;6.15;1.92;;;;;;;;;;5033269;28;20434;-70
2023/06/05 12:57:07;;;;;;;2.83;1.70;;;;;;;;;;5033265;28;20048;-70
2023/06/05 12:59:34;;;;;;;3.92;1.83;;;;;;;;;;5053106;28;20588;-70
2023/06/05 13:02:00;;;;;;;2.92;1.75;;;;;;;;;;5052432;28;20410;-70
2023/06/05 13:04:27;;;;;;;5.10;1.88;;;;;;;;;;5052718;28;20052;-70
2023/06/05 13:06:54;;;;;;;4.63;2.15;;;;;;;;;;5052984;28;20072;-69
2023/06/05 13:09:21;;;;;;;2.75;1.80;;;;;;;;;;5052943;28;20405;-69
2023/06/05 13:11:49;;;;;;;1.85;1.58;;;;;;;;;;5052887;28;20052;-69
2023/06/05 13:14:15;;;;;;;2.30;1.65;;;;;;;;;;5052706;28;20068;-69
2023/06/05 13:16:42;;;;;;;3.58;1.90;;;;;;;;;;5052917;28;20045;-70
2023/06/05 13:19:08;;;;;;;2.05;1.65;;;;;;;;;;5052706;28;20045;-70
2023/06/05 13:21:35;;;;;;;2.45;2.00;;;;;;;;;;5052293;28;20041;-70
2023/06/05 13:24:02;;;;;;;1.80;1.60;;;;;;;;;;5052831;28;20052;-69
2023/06/05 13:26:28;;;;;;;2.13;1.60;;;;;;;;;;5053183;28;20387;-70
2023/06/05 13:28:56;;;;;;;2.90;1.73;;;;;;;;;;5052354;28;20049;-70
2023/06/05 13:31:23;;;;;;;3.08;1.50;;;;;;;;;;5052536;28;20049;-68
2023/06/05 13:33:49;;;;;;;2.42;1.63;;;;;;;;;;5052524;28;20052;-68
2023/06/05 13:36:16;;;;;;;2.10;1.60;;;;;;;;;;5052045;28;20128;-68
2023/06/05 13:38:43;;;;;;;3.13;1.85;;;;;;;;;;5052759;28;20056;-68
2023/06/05 13:41:09;;;;;;;1.75;1.65;;;;;;;;;;5051889;28;20324;-68
2023/06/05 13:43:36;;;;;;;3.65;1.70;;;;;;;;;;5052566;28;20483;-69
2023/06/05 13:46:04;;;;;;;2.90;1.60;;;;;;;;;;5052061;28;20040;-70
2023/06/05 13:48:30;;;;;;;4.22;1.70;;;;;;;;;;5052333;28;20060;-70
2023/06/05 13:50:57;;;;;;;2.55;1.58;;;;;;;;;;5051461;28;20049;-71
2023/06/05 13:53:24;;;;;;;2.47;1.60;;;;;;;;;;5052185;28;20049;-69
2023/06/05 13:55:50;;;;;;;3.72;2.10;;;;;;;;;;5051722;28;20049;-70
2023/06/05 13:58:17;;;;;;;3.05;1.70;;;;;;;;;;5052038;28;20045;-70
2023/06/05 14:00:44;;;;;;;2.10;1.55;;;;;;;;;;5051308;28;20049;-71
2023/06/05 14:03:13;;;;;;;3.80;1.70;;;;;;;;;;5052028;28;20418;-71
2023/06/05 14:05:39;;;;;;;2.80;1.92;;;;;;;;;;5051667;28;20128;-69
2023/06/05 14:08:07;;;;;;;4.05;1.58;;;;;;;;;;5052162;28;20048;-69
2023/06/05 14:10:36;;;;;;;2.78;1.60;;;;;;;;;;5051519;28;20056;-70
2023/06/05 14:13:03;;;;;;;1.50;1.40;;;;;;;;;;5052141;28;20040;-69
2023/06/05 14:15:32;;;;;;;3.10;1.70;;;;;;;;;;5051943;28;20060;-70
2023/06/05 14:17:58;;;;;;;3.50;1.60;;;;;;;;;;5050994;28;20045;-70
2023/06/05 14:20:26;;;;;;;3.28;1.65;;;;;;;;;;5051604;28;20418;-69
2023/06/05 14:22:53;;;;;;;3.50;1.63;;;;;;;;;;5051417;28;20045;-69
2023/06/05 14:25:19;;;;;;;5.82;1.58;;;;;;;;;;5051933;28;20123;-69
2023/06/05 14:27:46;;;;;;;1.80;1.40;;;;;;;;;;5051294;28;20052;-69
2023/06/05 14:30:13;;;;;;;5.45;1.60;;;;;;;;;;5051176;28;20421;-70
2023/06/05 14:32:41;;;;;;;3.88;1.70;;;;;;;;;;5051786;28;20063;-69
2023/06/05 14:35:09;;;;;;;3.20;1.67;;;;;;;;;;5050978;28;20049;-69
2023/06/05 14:37:36;;;;;;;3.30;1.70;;;;;;;;;;5051023;28;20057;-70
2023/06/05 14:40:04;;;;;;;2.00;1.60;;;;;;;;;;5051083;28;20082;-69
2023/06/05 14:42:31;;;;;;;3.90;1.52;;;;;;;;;;5051000;28;20053;-69
2023/06/05 14:44:57;;;;;;;2.20;1.60;;;;;;;;;;5051147;28;20041;-70
2023/06/05 14:47:24;;;;;;;2.42;1.45;;;;;;;;;;5051413;28;20144;-69
2023/06/05 14:49:50;;;;;;;2.35;1.88;;;;;;;;;;5050587;28;20041;-69